createdAt,value
2019-02-12T00:00:24.977Z,99.90
2019-02-12T00:02:53.374Z,99.90
2019-02-12T00:05:21.830Z,99.90
2019-02-12T00:07:50.232Z,99.90
2019-02-12T00:10:18.657Z,99.90
2019-02-12T00:12:47.062Z,99.90
2019-02-12T00:15:15.501Z,99.90
2019-02-12T00:17:43.918Z,99.90
2019-02-12T00:20:12.386Z,99.90
2019-02-12T00:22:40.788Z,99.90
2019-02-12T00:25:09.295Z,99.90
2019-02-12T00:27:37.697Z,99.90
2019-02-12T00:30:10.711Z,99.90
2019-02-12T00:32:39.113Z,99.90
2019-02-12T00:35:07.818Z,99.90
2019-02-12T00:37:36.229Z,99.90
2019-02-12T00:40:06.787Z,99.90
2019-02-12T00:42:35.185Z,99.90
2019-02-12T00:45:04.362Z,99.90
2019-02-12T00:47:32.778Z,99.90
2019-02-12T00:50:01.210Z,99.90
2019-02-12T00:52:29.619Z,99.90
2019-02-12T00:54:58.065Z,99.90
2019-02-12T00:57:26.492Z,99.90
2019-02-12T00:59:54.935Z,99.90
2019-02-12T01:02:23.361Z,99.90
2019-02-12T01:04:51.777Z,99.90
2019-02-12T01:07:20.200Z,99.90
2019-02-12T01:09:48.904Z,99.90
2019-02-12T01:12:17.339Z,99.90
2019-02-12T01:14:45.758Z,99.90
2019-02-12T01:17:14.267Z,99.90
2019-02-12T01:19:42.660Z,99.90
2019-02-12T01:22:11.158Z,99.90
2019-02-12T01:24:39.578Z,99.90
2019-02-12T01:27:08.002Z,99.90
2019-02-12T01:29:36.423Z,99.90
2019-02-12T01:32:04.944Z,99.90
2019-02-12T01:34:33.364Z,99.90
2019-02-12T01:37:01.787Z,99.90
2019-02-12T01:39:30.197Z,99.90
2019-02-12T01:41:58.617Z,99.90
2019-02-12T01:44:27.035Z,99.90
2019-02-12T01:46:55.458Z,99.90
2019-02-12T01:49:23.857Z,99.90
2019-02-12T01:51:52.281Z,99.90
2019-02-12T01:54:20.707Z,99.90
2019-02-12T01:56:49.121Z,99.90
2019-02-12T01:59:17.524Z,99.90
2019-02-12T02:01:45.943Z,99.90
2019-02-12T02:04:14.355Z,99.90
2019-02-12T02:06:42.768Z,99.90
2019-02-12T02:09:11.463Z,99.90
2019-02-12T02:11:39.892Z,99.90
2019-02-12T02:14:08.292Z,99.90
2019-02-12T02:16:36.780Z,99.90
2019-02-12T02:19:05.195Z,99.90
2019-02-12T02:21:33.618Z,99.90
2019-02-12T02:24:02.021Z,99.90
2019-02-12T02:26:30.448Z,99.90
2019-02-12T02:28:58.864Z,99.90
2019-02-12T02:31:27.280Z,99.90
2019-02-12T02:33:56.152Z,99.90
2019-02-12T02:36:24.599Z,99.90
2019-02-12T02:38:53.008Z,99.90
2019-02-12T02:41:21.417Z,99.90
2019-02-12T02:43:49.825Z,99.90
2019-02-12T02:46:18.251Z,99.90
2019-02-12T02:48:46.672Z,99.90
2019-02-12T02:51:15.106Z,99.90
2019-02-12T02:53:43.497Z,99.90
2019-02-12T02:56:11.918Z,99.90
2019-02-12T02:58:40.334Z,99.90
2019-02-12T03:01:08.743Z,99.90
2019-02-12T03:03:37.164Z,99.90
2019-02-12T03:06:05.600Z,99.90
2019-02-12T03:08:34.023Z,99.90
2019-02-12T03:11:02.437Z,99.90
2019-02-12T03:13:30.922Z,99.90
2019-02-12T03:16:00.329Z,99.90
2019-02-12T03:18:28.772Z,99.90
2019-02-12T03:20:57.200Z,99.90
2019-02-12T03:23:25.609Z,99.90
2019-02-12T03:25:54.040Z,99.90
2019-02-12T03:28:22.464Z,99.90
2019-02-12T03:30:50.884Z,99.90
2019-02-12T03:33:19.393Z,99.90
2019-02-12T03:35:47.817Z,99.90
2019-02-12T03:38:17.731Z,99.90
2019-02-12T03:40:46.134Z,99.90
2019-02-12T03:43:14.579Z,99.90
2019-02-12T03:45:42.977Z,99.90
2019-02-12T03:48:11.440Z,99.90
2019-02-12T03:50:39.856Z,99.90
2019-02-12T03:53:08.284Z,99.90
2019-02-12T03:55:36.710Z,99.90
2019-02-12T03:58:05.234Z,99.90
2019-02-12T04:00:33.826Z,99.90
2019-02-12T04:03:04.372Z,99.90
2019-02-12T04:05:33.328Z,99.90
2019-02-12T04:08:02.089Z,99.90
2019-02-12T04:10:30.558Z,99.90
2019-02-12T04:12:59.195Z,99.90
2019-02-12T04:15:27.708Z,99.90
2019-02-12T04:17:56.193Z,99.90
2019-02-12T04:20:24.713Z,99.90
2019-02-12T04:22:53.164Z,99.90
2019-02-12T04:25:21.655Z,99.90
2019-02-12T04:27:50.107Z,99.90
2019-02-12T04:30:18.576Z,99.90
2019-02-12T04:32:46.982Z,99.90
2019-02-12T04:35:15.485Z,99.90
2019-02-12T04:37:43.981Z,99.90
2019-02-12T04:40:12.509Z,99.90
2019-02-12T04:42:40.923Z,99.90
2019-02-12T04:45:11.222Z,99.90
2019-02-12T04:47:39.634Z,99.90
2019-02-12T04:50:13.340Z,99.90
2019-02-12T04:52:41.746Z,99.90
2019-02-12T04:55:11.645Z,99.90
2019-02-12T04:57:40.076Z,99.90
2019-02-12T05:00:14.212Z,99.90
2019-02-12T05:02:42.666Z,99.90
2019-02-12T05:05:11.241Z,99.90
2019-02-12T05:07:39.677Z,99.90
2019-02-12T05:10:14.171Z,99.90
2019-02-12T05:12:42.599Z,99.90
2019-02-12T05:15:11.013Z,99.90
2019-02-12T05:17:39.441Z,99.90
2019-02-12T05:20:11.074Z,99.90
2019-02-12T05:22:43.594Z,99.90
2019-02-12T05:25:10.181Z,99.90
2019-02-12T05:27:38.719Z,99.90
2019-02-12T05:30:10.386Z,99.90
2019-02-12T05:32:38.805Z,99.90
2019-02-12T05:35:07.664Z,99.90
2019-02-12T05:37:36.074Z,99.90
2019-02-12T05:40:07.246Z,99.90
2019-02-12T05:42:35.666Z,99.90
2019-02-12T05:45:06.508Z,99.90
2019-02-12T05:47:34.921Z,99.90
2019-02-12T05:50:03.361Z,99.90
2019-02-12T05:52:31.797Z,99.90
2019-02-12T05:55:00.412Z,99.90
2019-02-12T05:57:28.904Z,99.90
2019-02-12T05:59:57.336Z,99.90
2019-02-12T06:02:25.783Z,99.90
2019-02-12T06:04:54.273Z,99.90
2019-02-12T06:07:22.676Z,99.90
2019-02-12T06:09:51.124Z,99.90
2019-02-12T06:12:19.558Z,99.90
2019-02-12T06:14:48.020Z,99.90
2019-02-12T06:17:16.461Z,99.90
2019-02-12T06:19:44.871Z,99.90
2019-02-12T06:22:13.297Z,99.90
2019-02-12T06:24:41.712Z,99.90
2019-02-12T06:27:11.036Z,99.90
2019-02-12T06:29:39.460Z,99.90
2019-02-12T06:32:07.887Z,99.90
2019-02-12T06:34:36.300Z,99.90
2019-02-12T06:37:04.708Z,99.90
2019-02-12T06:39:33.132Z,99.90
2019-02-12T06:42:01.538Z,99.90
2019-02-12T06:44:29.975Z,99.90
2019-02-12T06:46:58.378Z,99.90
2019-02-12T06:49:26.805Z,99.90
2019-02-12T06:51:55.201Z,99.90
2019-02-12T06:54:23.645Z,99.90
2019-02-12T06:56:52.056Z,99.90
2019-02-12T06:59:20.491Z,99.90
2019-02-12T07:01:48.915Z,99.90
2019-02-12T07:04:17.515Z,99.90
2019-02-12T07:07:04.135Z,99.90
2019-02-12T07:09:35.630Z,99.90
2019-02-12T07:12:28.273Z,99.90
2019-02-12T07:15:17.576Z,99.90
2019-02-12T07:18:04.052Z,99.90
2019-02-12T07:20:35.557Z,99.90
2019-02-12T07:23:07.042Z,99.90
2019-02-12T07:25:55.122Z,99.90
2019-02-12T07:28:44.789Z,99.90
2019-02-12T07:31:41.917Z,99.90
2019-02-12T07:34:24.896Z,99.90
2019-02-12T07:37:11.185Z,99.90
2019-02-12T07:39:54.720Z,99.90
2019-02-12T07:42:44.492Z,99.90
2019-02-12T07:45:18.896Z,99.90
2019-02-12T07:47:59.374Z,99.90
2019-02-12T07:50:47.658Z,99.90
2019-02-12T07:53:30.595Z,99.90
2019-02-12T07:56:21.159Z,99.90
2019-02-12T07:58:55.190Z,99.90
2019-02-12T08:01:26.677Z,99.90
2019-02-12T08:04:00.994Z,99.90
2019-02-12T08:06:47.639Z,99.60
2019-02-12T08:09:41.683Z,99.60
2019-02-12T08:12:19.151Z,99.40
2019-02-12T08:15:02.820Z,98.60
2019-02-12T08:17:53.756Z,98.00
2019-02-12T08:20:39.875Z,97.80
2019-02-12T08:23:20.413Z,98.10
2019-02-12T08:26:00.502Z,97.80
2019-02-12T08:28:47.265Z,97.50
2019-02-12T08:31:27.597Z,97.50
2019-02-12T08:34:26.540Z,97.50
2019-02-12T08:37:12.913Z,97.60
2019-02-12T08:40:01.237Z,97.10
2019-02-12T08:42:32.793Z,96.80
2019-02-12T08:45:22.401Z,95.90
2019-02-12T08:47:59.668Z,95.70
2019-02-12T08:50:49.307Z,95.80
2019-02-12T08:53:23.780Z,94.70
2019-02-12T08:56:01.311Z,94.60
2019-02-12T08:58:32.796Z,94.10
2019-02-12T09:01:25.039Z,94.20
2019-02-12T09:04:15.485Z,93.90
2019-02-12T09:06:52.941Z,93.30
2019-02-12T09:09:47.204Z,92.90
2019-02-12T09:12:30.634Z,92.20
2019-02-12T09:15:10.749Z,92.70
2019-02-12T09:18:05.022Z,92.10
2019-02-12T09:20:59.311Z,92.50
2019-02-12T09:23:47.504Z,92.50
2019-02-12T09:26:21.880Z,92.00
2019-02-12T09:29:15.999Z,92.10
2019-02-12T09:32:16.316Z,91.70
2019-02-12T09:34:50.679Z,91.80
2019-02-12T09:37:34.108Z,91.60
2019-02-12T09:40:19.164Z,91.50
2019-02-12T09:42:53.673Z,90.80
2019-02-12T09:45:34.220Z,91.00
2019-02-12T09:48:20.463Z,91.00
2019-02-12T09:51:01.667Z,90.70
2019-02-12T09:53:48.324Z,90.40
2019-02-12T09:56:34.976Z,90.00
2019-02-12T09:59:18.238Z,89.10
2019-02-12T10:01:58.625Z,88.70
2019-02-12T10:04:45.369Z,88.90
2019-02-12T10:07:23.036Z,87.80
2019-02-12T10:10:13.601Z,87.80
2019-02-12T10:12:45.071Z,85.70
2019-02-12T10:15:31.493Z,85.10
2019-02-12T10:18:11.745Z,85.10
2019-02-12T10:21:01.146Z,84.10
2019-02-12T10:23:53.804Z,83.70
2019-02-12T10:26:31.252Z,84.20
2019-02-12T10:29:17.159Z,83.70
2019-02-12T10:31:44.567Z,83.00
2019-02-12T10:34:13.144Z,82.10
2019-02-12T10:36:41.954Z,82.60
2019-02-12T10:39:10.898Z,82.20
2019-02-12T10:41:39.293Z,82.60
2019-02-12T10:44:07.733Z,82.20
2019-02-12T10:46:36.457Z,79.40
2019-02-12T10:49:04.869Z,80.20
2019-02-12T10:51:33.279Z,78.10
2019-02-12T10:54:01.714Z,77.70
2019-02-12T10:56:30.112Z,78.60
2019-02-12T10:58:58.537Z,79.10
2019-02-12T11:01:28.028Z,79.10
2019-02-12T11:03:56.469Z,79.70
2019-02-12T11:06:24.897Z,77.10
2019-02-12T11:08:53.324Z,76.60
2019-02-12T11:11:21.717Z,76.60
2019-02-12T11:13:50.187Z,73.80
2019-02-12T11:16:18.673Z,73.20
2019-02-12T11:18:47.123Z,72.00
2019-02-12T11:21:15.688Z,71.20
2019-02-12T11:23:44.228Z,70.00
2019-02-12T11:26:12.692Z,70.50
2019-02-12T11:28:41.352Z,71.20
2019-02-12T11:31:09.768Z,71.30
2019-02-12T11:33:38.173Z,71.00
2019-02-12T11:36:06.581Z,70.90
2019-02-12T11:38:34.977Z,70.90
2019-02-12T11:41:03.404Z,69.80
2019-02-12T11:43:31.805Z,70.70
2019-02-12T11:46:00.256Z,71.10
2019-02-12T11:48:28.659Z,71.10
2019-02-12T11:50:57.072Z,71.00
2019-02-12T11:53:25.490Z,70.40
2019-02-12T11:55:53.926Z,68.90
2019-02-12T11:58:22.316Z,67.70
2019-02-12T12:00:52.372Z,67.30
2019-02-12T12:03:20.769Z,66.70
2019-02-12T12:05:49.184Z,68.20
2019-02-12T12:08:17.591Z,67.60
2019-02-12T12:10:46.003Z,69.40
2019-02-12T12:13:14.414Z,69.70
2019-02-12T12:15:42.826Z,70.40
2019-02-12T12:18:11.257Z,70.40
2019-02-12T12:20:39.682Z,72.90
2019-02-12T12:23:08.106Z,75.00
2019-02-12T12:25:36.547Z,77.40
2019-02-12T12:28:04.937Z,79.40
2019-02-12T12:30:33.426Z,80.30
2019-02-12T12:33:01.832Z,80.50
2019-02-12T12:35:30.268Z,80.60
2019-02-12T12:37:58.763Z,80.10
2019-02-12T12:40:27.173Z,79.60
2019-02-12T12:42:55.568Z,79.40
2019-02-12T12:45:23.984Z,79.30
2019-02-12T12:47:52.414Z,79.30
2019-02-12T12:50:20.849Z,78.00
2019-02-12T12:52:49.247Z,76.80
2019-02-12T12:55:17.665Z,77.00
2019-02-12T12:57:46.085Z,77.80
2019-02-12T13:00:16.294Z,76.40
2019-02-12T13:02:44.691Z,76.20
2019-02-12T13:05:13.182Z,75.60
2019-02-12T13:07:41.584Z,74.90
2019-02-12T13:10:12.740Z,74.20
2019-02-12T13:12:41.154Z,74.10
2019-02-12T13:15:11.808Z,74.30
2019-02-12T13:17:40.273Z,73.80
2019-02-12T13:20:11.190Z,74.20
2019-02-12T13:22:39.609Z,72.70
2019-02-12T13:25:09.263Z,71.00
2019-02-12T13:27:37.690Z,70.20
2019-02-12T13:30:14.939Z,70.90
2019-02-12T13:32:43.367Z,69.40
2019-02-12T13:35:12.401Z,69.00
2019-02-12T13:37:40.826Z,69.40
2019-02-12T13:40:13.565Z,69.40
2019-02-12T13:42:42.133Z,68.50
2019-02-12T13:45:16.347Z,68.70
2019-02-12T13:47:44.870Z,69.00
2019-02-12T13:50:13.871Z,68.80
2019-02-12T13:52:42.289Z,69.20
2019-02-12T13:55:17.057Z,68.60
2019-02-12T13:57:41.577Z,68.00
2019-02-12T14:00:13.315Z,69.00
2019-02-12T14:02:41.721Z,70.40
2019-02-12T14:05:12.956Z,70.20
2019-02-12T14:07:41.421Z,69.40
2019-02-12T14:10:09.962Z,70.00
2019-02-12T14:12:38.399Z,69.90
2019-02-12T14:15:09.865Z,69.20
2019-02-12T14:17:38.286Z,69.20
2019-02-12T14:20:11.986Z,70.00
2019-02-12T14:22:40.533Z,68.00
2019-02-12T14:25:13.752Z,68.70
2019-02-12T14:27:42.382Z,69.50
2019-02-12T14:30:19.161Z,69.70
2019-02-12T14:32:47.577Z,69.20
2019-02-12T14:35:16.004Z,69.30
2019-02-12T14:37:44.425Z,69.90
2019-02-12T14:40:14.285Z,70.10
2019-02-12T14:42:42.725Z,69.90
2019-02-12T14:45:16.012Z,68.80
2019-02-12T14:47:44.446Z,68.00
2019-02-12T14:50:15.920Z,68.10
2019-02-12T14:52:44.341Z,68.60
2019-02-12T14:55:12.756Z,68.60
2019-02-12T14:57:41.177Z,69.80
2019-02-12T15:00:14.522Z,69.60
2019-02-12T15:02:42.934Z,69.80
2019-02-12T15:05:11.461Z,69.50
2019-02-12T15:07:39.891Z,70.10
2019-02-12T15:10:15.273Z,70.80
2019-02-12T15:12:43.708Z,71.30
2019-02-12T15:15:12.359Z,70.90
2019-02-12T15:17:40.776Z,70.50
2019-02-12T15:20:12.841Z,71.50
2019-02-12T15:22:41.324Z,70.90
2019-02-12T15:25:10.861Z,70.80
2019-02-12T15:27:39.286Z,71.10
2019-02-12T15:30:13.478Z,72.30
2019-02-12T15:32:42.940Z,72.90
2019-02-12T15:35:11.804Z,73.10
2019-02-12T15:37:40.226Z,72.90
2019-02-12T15:40:11.165Z,73.10
2019-02-12T15:42:39.577Z,73.50
2019-02-12T15:45:11.098Z,73.80
2019-02-12T15:47:39.512Z,74.60
2019-02-12T15:50:10.256Z,75.20
2019-02-12T15:52:38.688Z,75.50
2019-02-12T15:55:09.843Z,75.70
2019-02-12T15:57:40.289Z,75.70
2019-02-12T16:00:20.922Z,76.00
2019-02-12T16:02:49.371Z,76.50
2019-02-12T16:05:17.769Z,76.60
2019-02-12T16:07:47.440Z,76.80
2019-02-12T16:10:20.104Z,77.10
2019-02-12T16:12:49.405Z,77.80
2019-02-12T16:15:21.862Z,77.90
2019-02-12T16:17:49.832Z,78.10
2019-02-12T16:20:18.288Z,77.90
2019-02-12T16:22:46.723Z,78.40
2019-02-12T16:25:15.555Z,78.20
2019-02-12T16:27:44.149Z,78.30
2019-02-12T16:30:19.532Z,78.80
2019-02-12T16:32:47.936Z,79.40
2019-02-12T16:35:17.301Z,79.50
2019-02-12T16:37:45.731Z,79.60
2019-02-12T16:40:15.179Z,80.10
2019-02-12T16:42:43.664Z,80.40
2019-02-12T16:45:27.246Z,79.90
2019-02-12T16:47:55.708Z,80.10
2019-02-12T16:50:24.119Z,80.70
2019-02-12T16:52:52.547Z,81.40
2019-02-12T16:55:21.097Z,82.40
2019-02-12T16:57:49.527Z,84.60
2019-02-12T17:00:18.274Z,85.60
2019-02-12T17:02:46.850Z,85.40
2019-02-12T17:05:15.680Z,86.60
2019-02-12T17:07:45.139Z,87.40
2019-02-12T17:10:14.215Z,87.50
2019-02-12T17:12:42.756Z,87.60
2019-02-12T17:15:12.635Z,87.60
2019-02-12T17:17:41.055Z,88.70
2019-02-12T17:20:23.982Z,89.70
2019-02-12T17:22:52.456Z,90.40
2019-02-12T17:25:20.917Z,90.10
2019-02-12T17:27:49.331Z,90.50
2019-02-12T17:30:18.488Z,90.60
2019-02-12T17:32:47.029Z,90.70
2019-02-12T17:35:15.468Z,91.30
2019-02-12T17:37:43.861Z,91.80
2019-02-12T17:40:16.950Z,91.80
2019-02-12T17:42:45.358Z,92.00
2019-02-12T17:45:15.892Z,92.20
2019-02-12T17:47:44.294Z,92.00
2019-02-12T17:50:14.072Z,92.30
2019-02-12T17:52:42.491Z,92.60
2019-02-12T17:55:11.575Z,93.00
2019-02-12T17:57:40.003Z,93.80
2019-02-12T18:00:15.844Z,94.40
2019-02-12T18:02:44.386Z,94.60
2019-02-12T18:05:12.994Z,94.90
2019-02-12T18:07:41.420Z,95.00
2019-02-12T18:10:11.150Z,94.70
2019-02-12T18:12:39.649Z,95.00
2019-02-12T18:15:12.829Z,95.60
2019-02-12T18:17:41.357Z,95.70
2019-02-12T18:20:17.253Z,95.60
2019-02-12T18:22:45.764Z,95.50
2019-02-12T18:25:14.260Z,96.30
2019-02-12T18:27:42.717Z,96.70
2019-02-12T18:30:15.834Z,96.90
2019-02-12T18:32:44.390Z,97.20
2019-02-12T18:35:12.989Z,97.40
2019-02-12T18:37:41.423Z,97.30
2019-02-12T18:40:17.279Z,97.30
2019-02-12T18:42:45.912Z,97.50
2019-02-12T18:45:22.263Z,97.70
2019-02-12T18:47:50.740Z,97.80
2019-02-12T18:50:19.241Z,98.20
2019-02-12T18:52:47.658Z,98.50
2019-02-12T18:55:16.617Z,98.50
2019-02-12T18:57:45.021Z,98.80
2019-02-12T19:00:21.233Z,99.10
2019-02-12T19:02:49.659Z,99.20
2019-02-12T19:05:18.188Z,99.50
2019-02-12T19:07:46.679Z,99.50
2019-02-12T19:10:18.840Z,99.60
2019-02-12T19:12:47.245Z,99.80
2019-02-12T19:15:20.056Z,99.60
2019-02-12T19:18:00.405Z,99.40
2019-02-12T19:20:28.900Z,99.40
2019-02-12T19:22:57.310Z,99.40
2019-02-12T19:25:25.729Z,99.50
2019-02-12T19:27:54.132Z,99.60
2019-02-12T19:30:22.552Z,99.70
2019-02-12T19:32:50.984Z,99.90
2019-02-12T19:35:19.408Z,99.90
2019-02-12T19:37:47.809Z,99.90
2019-02-12T19:40:16.239Z,99.90
2019-02-12T19:42:44.659Z,99.90
2019-02-12T19:45:15.506Z,99.90
2019-02-12T19:47:43.922Z,99.90
2019-02-12T19:50:12.509Z,99.90
2019-02-12T19:52:40.920Z,99.90
2019-02-12T19:55:10.186Z,99.90
2019-02-12T19:57:38.611Z,99.90
2019-02-12T20:00:14.156Z,99.90
2019-02-12T20:02:42.563Z,99.90
2019-02-12T20:05:11.850Z,99.90
2019-02-12T20:07:40.267Z,99.90
2019-02-12T20:10:14.077Z,99.90
2019-02-12T20:12:42.480Z,99.90
2019-02-12T20:15:19.529Z,99.90
2019-02-12T20:17:47.939Z,99.90
2019-02-12T20:20:18.367Z,99.90
2019-02-12T20:22:46.796Z,99.90
2019-02-12T20:25:15.239Z,99.90
2019-02-12T20:27:43.645Z,99.90
2019-02-12T20:30:14.300Z,99.90
2019-02-12T20:32:42.775Z,99.90
2019-02-12T20:35:13.141Z,99.90
2019-02-12T20:37:41.562Z,99.90
2019-02-12T20:40:12.127Z,99.90
2019-02-12T20:42:40.545Z,99.90
2019-02-12T20:45:14.358Z,99.90
2019-02-12T20:47:42.803Z,99.90
2019-02-12T20:50:13.996Z,99.90
2019-02-12T20:52:42.430Z,99.90
2019-02-12T20:55:11.288Z,99.90
2019-02-12T20:57:39.799Z,99.90
2019-02-12T21:00:17.148Z,99.90
2019-02-12T21:02:45.791Z,99.90
2019-02-12T21:05:15.657Z,99.90
2019-02-12T21:07:44.223Z,99.90
2019-02-12T21:10:14.773Z,99.90
2019-02-12T21:12:43.210Z,99.90
2019-02-12T21:15:23.117Z,99.90
2019-02-12T21:17:51.551Z,99.90
2019-02-12T21:20:19.960Z,99.90
2019-02-12T21:22:48.389Z,99.90
2019-02-12T21:25:16.948Z,99.90
2019-02-12T21:27:45.379Z,99.90
2019-02-12T21:30:19.619Z,99.90
2019-02-12T21:32:48.031Z,99.90
2019-02-12T21:35:16.449Z,99.90
2019-02-12T21:37:44.874Z,99.90
2019-02-12T21:40:24.340Z,99.90
2019-02-12T21:42:52.758Z,99.90
2019-02-12T21:45:21.243Z,99.90
2019-02-12T21:47:49.660Z,99.90
2019-02-12T21:50:18.096Z,99.90
2019-02-12T21:52:46.516Z,99.90
2019-02-12T21:55:17.342Z,99.90
2019-02-12T21:57:45.834Z,99.90
2019-02-12T22:00:16.279Z,99.90
2019-02-12T22:02:44.692Z,99.90
2019-02-12T22:05:14.537Z,99.90
2019-02-12T22:07:42.992Z,99.90
2019-02-12T22:10:14.011Z,99.90
2019-02-12T22:12:42.432Z,99.90
2019-02-12T22:15:11.880Z,99.90
2019-02-12T22:17:41.463Z,99.90
2019-02-12T22:20:12.037Z,99.90
2019-02-12T22:22:40.492Z,99.90
2019-02-12T22:25:09.942Z,99.90
2019-02-12T22:27:40.467Z,99.90
2019-02-12T22:30:17.020Z,99.90
2019-02-12T22:32:45.450Z,99.90
2019-02-12T22:35:14.663Z,99.90
2019-02-12T22:37:43.478Z,99.90
2019-02-12T22:40:13.846Z,99.90
2019-02-12T22:42:42.265Z,99.90
2019-02-12T22:45:13.210Z,99.90
2019-02-12T22:47:41.642Z,99.90
2019-02-12T22:50:11.485Z,99.90
2019-02-12T22:52:39.995Z,99.90
2019-02-12T22:55:09.856Z,99.90
2019-02-12T22:57:38.335Z,99.90
2019-02-12T23:00:44.885Z,99.90
2019-02-12T23:03:13.448Z,99.90
2019-02-12T23:05:41.924Z,99.90
2019-02-12T23:08:10.420Z,99.90
2019-02-12T23:10:38.827Z,99.90
2019-02-12T23:13:07.521Z,99.90
2019-02-12T23:15:36.137Z,99.90
2019-02-12T23:18:04.650Z,99.90
2019-02-12T23:20:33.048Z,99.90
2019-02-12T23:23:01.510Z,99.90
2019-02-12T23:25:29.925Z,99.90
2019-02-12T23:27:58.351Z,99.90
2019-02-12T23:30:26.785Z,99.90
2019-02-12T23:32:55.577Z,99.90
2019-02-12T23:35:23.985Z,99.90
2019-02-12T23:37:52.428Z,99.90
2019-02-12T23:40:20.828Z,99.90
2019-02-12T23:42:49.277Z,99.90
2019-02-12T23:45:17.676Z,99.90
2019-02-12T23:47:46.120Z,99.90
2019-02-12T23:50:14.519Z,99.90
2019-02-12T23:52:42.956Z,99.90
2019-02-12T23:55:11.369Z,99.90
2019-02-12T23:57:39.812Z,99.90
